createdAt,value
2023-04-21T00:01:34.069Z,100.00
2023-04-21T00:04:05.778Z,100.00
2023-04-21T00:06:37.330Z,100.00
2023-04-21T00:09:08.873Z,100.00
2023-04-21T00:11:40.166Z,100.00
2023-04-21T00:14:11.439Z,100.00
2023-04-21T00:16:42.747Z,100.00
2023-04-21T00:19:15.238Z,100.00
2023-04-21T00:21:46.506Z,100.00
2023-04-21T00:24:17.796Z,100.00
2023-04-21T00:26:49.089Z,100.00
2023-04-21T00:29:20.517Z,100.00
2023-04-21T00:31:51.962Z,100.00
2023-04-21T00:34:23.292Z,100.00
2023-04-21T00:36:55.568Z,100.00
2023-04-21T00:39:26.845Z,100.00
2023-04-21T00:41:58.119Z,100.00
2023-04-21T00:44:29.478Z,100.00
2023-04-21T00:47:00.940Z,100.00
2023-04-21T00:49:32.716Z,100.00
2023-04-21T00:52:07.215Z,100.00
2023-04-21T00:54:39.747Z,100.00
2023-04-21T00:57:11.595Z,100.00
2023-04-21T00:59:43.454Z,100.00
2023-04-21T01:02:16.820Z,100.00
2023-04-21T01:04:48.489Z,100.00
2023-04-21T01:07:20.388Z,100.00
2023-04-21T01:09:51.663Z,100.00
2023-04-21T01:12:22.958Z,100.00
2023-04-21T01:14:54.345Z,100.00
2023-04-21T01:17:25.727Z,100.00
2023-04-21T01:20:01.698Z,100.00
2023-04-21T01:22:33.007Z,100.00
2023-04-21T01:25:04.759Z,100.00
2023-04-21T01:27:36.307Z,100.00
2023-04-21T01:30:08.721Z,100.00
2023-04-21T01:32:40.109Z,100.00
2023-04-21T01:35:11.430Z,100.00
2023-04-21T01:37:42.862Z,100.00
2023-04-21T01:40:14.240Z,100.00
2023-04-21T01:42:45.629Z,100.00
2023-04-21T01:45:16.951Z,100.00
2023-04-21T01:47:48.295Z,100.00
2023-04-21T01:50:19.641Z,100.00
2023-04-21T01:52:51.083Z,100.00
2023-04-21T01:55:22.534Z,100.00
2023-04-21T01:57:53.805Z,100.00
2023-04-21T02:00:26.516Z,100.00
2023-04-21T02:02:57.911Z,100.00
2023-04-21T02:05:29.340Z,100.00
2023-04-21T02:08:00.751Z,100.00
2023-04-21T02:10:32.126Z,100.00
2023-04-21T02:13:03.429Z,100.00
2023-04-21T02:15:34.763Z,100.00
2023-04-21T02:18:06.561Z,100.00
2023-04-21T02:20:38.800Z,100.00
2023-04-21T02:23:10.224Z,100.00
2023-04-21T02:25:41.527Z,100.00
2023-04-21T02:28:12.803Z,100.00
2023-04-21T02:30:44.079Z,100.00
2023-04-21T02:33:15.457Z,100.00
2023-04-21T02:35:46.850Z,100.00
2023-04-21T02:38:18.110Z,100.00
2023-04-21T02:40:50.567Z,100.00
2023-04-21T02:43:21.885Z,100.00
2023-04-21T02:45:53.238Z,100.00
2023-04-21T02:48:24.619Z,100.00
2023-04-21T02:50:55.912Z,100.00
2023-04-21T02:53:27.217Z,100.00
2023-04-21T02:55:58.511Z,100.00
2023-04-21T02:58:29.915Z,100.00
2023-04-21T03:01:02.455Z,100.00
2023-04-21T03:03:34.039Z,100.00
2023-04-21T03:06:05.924Z,100.00
2023-04-21T03:08:37.220Z,100.00
2023-04-21T03:11:08.515Z,100.00
2023-04-21T03:13:39.808Z,100.00
2023-04-21T03:16:11.428Z,100.00
2023-04-21T03:18:42.727Z,100.00
2023-04-21T03:21:13.989Z,100.00
2023-04-21T03:23:45.332Z,100.00
2023-04-21T03:26:16.744Z,100.00
2023-04-21T03:28:48.290Z,100.00
2023-04-21T03:31:19.580Z,100.00
2023-04-21T03:33:50.852Z,100.00
2023-04-21T03:36:22.231Z,100.00
2023-04-21T03:38:53.537Z,100.00
2023-04-21T03:41:24.912Z,100.00
2023-04-21T03:43:56.210Z,100.00
2023-04-21T03:46:27.631Z,100.00
2023-04-21T03:48:59.427Z,100.00
2023-04-21T03:51:32.376Z,100.00
2023-04-21T03:54:03.712Z,100.00
2023-04-21T03:56:35.097Z,100.00
2023-04-21T03:59:06.502Z,100.00
2023-04-21T04:01:37.852Z,100.00
2023-04-21T04:04:09.388Z,100.00
2023-04-21T04:06:40.871Z,100.00
2023-04-21T04:09:12.141Z,100.00
2023-04-21T04:11:43.433Z,100.00
2023-04-21T04:14:14.834Z,100.00
2023-04-21T04:16:46.147Z,100.00
2023-04-21T04:19:17.713Z,100.00
2023-04-21T04:21:49.356Z,100.00
2023-04-21T04:24:21.527Z,100.00
2023-04-21T04:26:57.749Z,100.00
2023-04-21T04:29:29.320Z,100.00
2023-04-21T04:32:01.721Z,100.00
2023-04-21T04:34:33.115Z,100.00
2023-04-21T04:37:04.612Z,100.00
2023-04-21T04:39:37.005Z,100.00
2023-04-21T04:42:11.699Z,100.00
2023-04-21T04:44:42.977Z,100.00
2023-04-21T04:47:14.340Z,100.00
2023-04-21T04:49:45.855Z,100.00
2023-04-21T04:52:17.152Z,100.00
2023-04-21T04:54:48.445Z,100.00
2023-04-21T04:57:19.717Z,100.00
2023-04-21T04:59:55.931Z,100.00
2023-04-21T05:02:27.347Z,100.00
2023-04-21T05:04:58.851Z,100.00
2023-04-21T05:07:30.215Z,100.00
2023-04-21T05:10:02.375Z,100.00
2023-04-21T05:12:33.724Z,100.00
2023-04-21T05:15:06.457Z,100.00
2023-04-21T05:17:37.816Z,100.00
2023-04-21T05:20:09.640Z,100.00
2023-04-21T05:22:41.281Z,100.00
2023-04-21T05:25:15.599Z,100.00
2023-04-21T05:27:48.196Z,100.00
2023-04-21T05:30:19.599Z,100.00
2023-04-21T05:32:51.607Z,100.00
2023-04-21T05:35:23.097Z,100.00
2023-04-21T05:37:54.442Z,100.00
2023-04-21T05:40:25.891Z,100.00
2023-04-21T05:42:57.249Z,100.00
2023-04-21T05:45:28.590Z,100.00
2023-04-21T05:47:59.889Z,100.00
2023-04-21T05:50:33.946Z,100.00
2023-04-21T05:53:05.346Z,100.00
2023-04-21T05:55:37.209Z,100.00
2023-04-21T05:58:08.602Z,100.00
2023-04-21T06:00:39.910Z,97.38
2023-04-21T06:03:11.314Z,95.24
2023-04-21T06:05:42.771Z,93.40
2023-04-21T06:08:14.120Z,92.46
2023-04-21T06:10:45.471Z,92.18
2023-04-21T06:13:16.837Z,91.97
2023-04-21T06:15:48.193Z,92.20
2023-04-21T06:18:19.598Z,93.94
2023-04-21T06:20:51.981Z,95.00
2023-04-21T06:23:23.354Z,96.73
2023-04-21T06:26:04.109Z,97.75
2023-04-21T06:28:37.027Z,98.69
2023-04-21T06:31:09.677Z,99.64
2023-04-21T06:33:45.302Z,99.58
2023-04-21T06:36:18.099Z,100.00
2023-04-21T06:38:49.743Z,100.00
2023-04-21T06:41:22.895Z,99.87
2023-04-21T06:43:55.698Z,99.76
2023-04-21T06:46:27.049Z,99.29
2023-04-21T06:48:58.494Z,99.22
2023-04-21T06:51:30.508Z,98.67
2023-04-21T06:54:01.962Z,97.36
2023-04-21T06:56:34.235Z,97.58
2023-04-21T06:59:05.514Z,97.35
2023-04-21T07:01:36.997Z,97.11
2023-04-21T07:04:08.600Z,96.57
2023-04-21T07:06:50.421Z,96.16
2023-04-21T07:09:29.676Z,96.07
2023-04-21T07:12:01.082Z,95.38
2023-04-21T07:14:32.396Z,94.41
2023-04-21T07:17:03.875Z,94.80
2023-04-21T07:19:35.433Z,94.90
2023-04-21T07:22:06.714Z,94.43
2023-04-21T07:24:38.147Z,93.85
2023-04-21T07:27:09.522Z,93.58
2023-04-21T07:29:40.942Z,93.21
2023-04-21T07:32:12.274Z,93.00
2023-04-21T07:34:46.803Z,92.45
2023-04-21T07:37:18.220Z,92.61
2023-04-21T07:39:49.824Z,92.08
2023-04-21T07:42:21.211Z,92.30
2023-04-21T07:44:53.071Z,92.28
2023-04-21T07:47:24.614Z,91.96
2023-04-21T07:49:56.006Z,91.93
2023-04-21T07:52:27.349Z,91.72
2023-04-21T07:54:58.665Z,91.75
2023-04-21T07:57:31.820Z,91.06
2023-04-21T08:00:03.938Z,90.49
2023-04-21T08:02:35.325Z,90.19
2023-04-21T08:05:07.192Z,89.09
2023-04-21T08:07:39.393Z,89.32
2023-04-21T08:10:10.793Z,89.11
2023-04-21T08:12:42.135Z,88.39
2023-04-21T08:15:13.480Z,88.63
2023-04-21T08:17:44.853Z,88.46
2023-04-21T08:20:16.267Z,88.35
2023-04-21T08:22:48.737Z,87.67
2023-04-21T08:25:20.235Z,87.50
2023-04-21T08:27:51.563Z,86.97
2023-04-21T08:30:22.920Z,87.20
2023-04-21T08:32:54.393Z,86.83
2023-04-21T08:35:25.998Z,86.81
2023-04-21T08:37:57.620Z,85.88
2023-04-21T08:40:36.097Z,85.58
2023-04-21T08:43:08.292Z,84.79
2023-04-21T08:45:41.055Z,85.24
2023-04-21T08:48:16.367Z,84.42
2023-04-21T08:50:50.276Z,84.29
2023-04-21T08:53:21.767Z,84.58
2023-04-21T08:56:10.076Z,83.98
2023-04-21T08:58:42.471Z,84.01
2023-04-21T09:01:13.865Z,83.46
2023-04-21T09:03:47.003Z,82.75
2023-04-21T09:06:19.048Z,82.22
2023-04-21T09:08:58.326Z,81.67
2023-04-21T09:11:34.322Z,81.18
2023-04-21T09:14:05.662Z,82.44
2023-04-21T09:16:37.087Z,84.06
2023-04-21T09:19:16.208Z,80.83
2023-04-21T09:21:47.507Z,82.16
2023-04-21T09:24:20.156Z,80.87
2023-04-21T09:26:53.061Z,80.80
2023-04-21T09:29:25.458Z,80.26
2023-04-21T09:31:57.120Z,79.94
2023-04-21T09:34:29.050Z,77.64
2023-04-21T09:37:02.917Z,78.25
2023-04-21T09:39:46.341Z,77.02
2023-04-21T09:42:30.152Z,77.65
2023-04-21T09:45:28.457Z,77.29
2023-04-21T09:47:57.529Z,77.53
2023-04-21T09:50:54.361Z,74.47
2023-04-21T09:53:24.056Z,79.28
2023-04-21T09:55:58.442Z,78.92
2023-04-21T09:58:37.789Z,78.02
2023-04-21T10:01:09.600Z,77.44
2023-04-21T10:03:43.503Z,76.89
2023-04-21T10:06:15.406Z,75.64
2023-04-21T10:08:47.425Z,74.66
2023-04-21T10:11:18.889Z,74.07
2023-04-21T10:13:50.993Z,73.92
2023-04-21T10:16:23.168Z,73.63
2023-04-21T10:18:54.635Z,73.69
2023-04-21T10:21:26.834Z,71.96
2023-04-21T10:23:59.133Z,71.26
2023-04-21T10:26:35.319Z,71.37
2023-04-21T10:29:09.434Z,71.52
2023-04-21T10:31:54.080Z,69.07
2023-04-21T10:34:36.640Z,69.26
2023-04-21T10:37:12.528Z,70.78
2023-04-21T10:39:51.871Z,71.88
2023-04-21T10:42:25.657Z,73.55
2023-04-21T10:44:57.100Z,71.18
2023-04-21T10:47:36.735Z,69.87
2023-04-21T10:50:31.516Z,68.72
2023-04-21T10:53:11.293Z,69.66
2023-04-21T10:55:49.089Z,68.58
2023-04-21T10:58:24.270Z,69.79
2023-04-21T11:00:56.615Z,69.17
2023-04-21T11:03:35.837Z,67.33
2023-04-21T11:06:17.902Z,67.77
2023-04-21T11:08:57.357Z,65.43
2023-04-21T11:11:28.747Z,67.66
2023-04-21T11:14:00.285Z,67.58
2023-04-21T11:16:31.780Z,66.53
2023-04-21T11:19:03.188Z,65.88
2023-04-21T11:21:34.542Z,64.62
2023-04-21T11:24:06.096Z,65.62
2023-04-21T11:26:42.539Z,65.52
2023-04-21T11:29:14.467Z,65.32
2023-04-21T11:31:50.145Z,65.10
2023-04-21T11:34:22.444Z,64.79
2023-04-21T11:36:55.761Z,64.49
2023-04-21T11:39:27.066Z,63.60
2023-04-21T11:41:58.503Z,61.61
2023-04-21T11:44:38.245Z,61.48
2023-04-21T11:47:13.218Z,61.69
2023-04-21T11:49:50.512Z,61.39
2023-04-21T11:52:43.383Z,58.50
2023-04-21T11:55:18.565Z,62.18
2023-04-21T11:57:51.320Z,62.02
2023-04-21T12:00:22.817Z,62.28
2023-04-21T12:02:56.402Z,60.64
2023-04-21T12:05:36.060Z,60.02
2023-04-21T12:08:14.711Z,61.44
2023-04-21T12:10:46.950Z,59.66
2023-04-21T12:13:24.810Z,58.01
2023-04-21T12:15:56.198Z,60.10
2023-04-21T12:18:27.658Z,59.80
2023-04-21T12:21:01.669Z,59.28
2023-04-21T12:23:33.052Z,59.93
2023-04-21T12:26:04.580Z,59.78
2023-04-21T12:28:36.222Z,58.95
2023-04-21T12:31:07.640Z,56.97
2023-04-21T12:33:39.514Z,57.67
2023-04-21T12:36:11.176Z,57.30
2023-04-21T12:38:43.072Z,56.56
2023-04-21T12:41:14.384Z,55.89
2023-04-21T12:43:45.839Z,55.02
2023-04-21T12:46:17.388Z,54.60
2023-04-21T12:48:48.843Z,54.15
2023-04-21T12:51:20.208Z,54.27
2023-04-21T12:53:52.068Z,53.51
2023-04-21T12:56:23.473Z,53.47
2023-04-21T12:58:54.764Z,52.61
2023-04-21T13:01:26.180Z,51.82
2023-04-21T13:03:57.814Z,51.71
2023-04-21T13:06:29.441Z,51.64
2023-04-21T13:09:01.716Z,51.63
2023-04-21T13:11:33.402Z,50.82
2023-04-21T13:14:04.709Z,51.35
2023-04-21T13:16:36.196Z,51.25
2023-04-21T13:19:07.489Z,51.08
2023-04-21T13:21:38.922Z,50.76
2023-04-21T13:24:14.356Z,49.56
2023-04-21T13:26:45.976Z,51.35
2023-04-21T13:29:17.496Z,52.53
2023-04-21T13:31:48.828Z,50.68
2023-04-21T13:34:20.263Z,50.77
2023-04-21T13:36:51.572Z,49.22
2023-04-21T13:39:23.028Z,49.67
2023-04-21T13:41:54.459Z,49.01
2023-04-21T13:44:25.892Z,47.51
2023-04-21T13:46:57.445Z,48.88
2023-04-21T13:49:28.930Z,48.76
2023-04-21T13:52:00.238Z,48.05
2023-04-21T13:54:31.797Z,49.14
2023-04-21T13:57:03.619Z,48.16
2023-04-21T13:59:35.116Z,48.11
2023-04-21T14:02:06.885Z,48.42
2023-04-21T14:04:38.563Z,48.75
2023-04-21T14:07:10.233Z,47.93
2023-04-21T14:09:41.517Z,47.62
2023-04-21T14:12:12.847Z,48.22
2023-04-21T14:14:44.164Z,48.22
2023-04-21T14:17:16.949Z,47.86
2023-04-21T14:19:48.422Z,46.93
2023-04-21T14:22:20.547Z,47.10
2023-04-21T14:24:51.898Z,47.18
2023-04-21T14:27:23.242Z,47.21
2023-04-21T14:29:54.533Z,47.09
2023-04-21T14:32:26.434Z,46.82
2023-04-21T14:34:59.703Z,46.89
2023-04-21T14:37:31.035Z,46.50
2023-04-21T14:40:03.869Z,46.09
2023-04-21T14:42:35.582Z,46.41
2023-04-21T14:45:08.112Z,46.48
2023-04-21T14:47:39.531Z,47.14
2023-04-21T14:50:11.022Z,46.51
2023-04-21T14:52:42.353Z,45.97
2023-04-21T14:55:13.722Z,46.22
2023-04-21T14:57:45.083Z,45.95
2023-04-21T15:00:16.878Z,45.33
2023-04-21T15:02:48.251Z,45.32
2023-04-21T15:05:19.850Z,45.69
2023-04-21T15:07:51.599Z,46.33
2023-04-21T15:10:22.873Z,45.42
2023-04-21T15:12:54.241Z,45.10
2023-04-21T15:15:25.544Z,44.36
2023-04-21T15:17:56.948Z,44.49
2023-04-21T15:20:41.066Z,44.43
2023-04-21T15:23:16.468Z,44.64
2023-04-21T15:25:47.836Z,44.71
2023-04-21T15:28:19.113Z,44.92
2023-04-21T15:30:50.547Z,44.24
2023-04-21T15:33:21.882Z,44.56
2023-04-21T15:35:53.201Z,44.50
2023-04-21T15:38:24.486Z,44.51
2023-04-21T15:41:01.114Z,44.31
2023-04-21T15:43:33.093Z,44.46
2023-04-21T15:46:12.867Z,44.33
2023-04-21T15:48:44.294Z,44.65
2023-04-21T15:51:15.921Z,45.03
2023-04-21T15:53:48.551Z,45.21
2023-04-21T15:56:19.885Z,44.81
2023-04-21T15:58:51.400Z,45.10
2023-04-21T16:01:22.873Z,44.30
2023-04-21T16:03:54.299Z,44.41
2023-04-21T16:06:26.584Z,45.16
2023-04-21T16:08:58.063Z,44.68
2023-04-21T16:11:29.464Z,45.29
2023-04-21T16:14:01.255Z,45.19
2023-04-21T16:16:32.727Z,45.90
2023-04-21T16:19:04.116Z,45.41
2023-04-21T16:21:36.276Z,45.54
2023-04-21T16:24:08.741Z,45.97
2023-04-21T16:26:40.866Z,46.23
2023-04-21T16:29:12.220Z,46.21
2023-04-21T16:31:43.596Z,45.89
2023-04-21T16:34:16.084Z,45.85
2023-04-21T16:36:47.595Z,46.12
2023-04-21T16:39:18.967Z,45.64
2023-04-21T16:41:50.621Z,46.53
2023-04-21T16:44:22.008Z,46.00
2023-04-21T16:46:53.452Z,46.07
2023-04-21T16:49:24.922Z,46.09
2023-04-21T16:51:56.381Z,46.42
2023-04-21T16:54:27.748Z,46.85
2023-04-21T16:56:59.189Z,46.52
2023-04-21T16:59:32.365Z,46.51
2023-04-21T17:02:04.438Z,46.93
2023-04-21T17:04:37.241Z,47.13
2023-04-21T17:07:08.761Z,46.54
2023-04-21T17:09:40.739Z,46.27
2023-04-21T17:12:12.161Z,47.03
2023-04-21T17:14:43.488Z,47.06
2023-04-21T17:17:14.841Z,46.45
2023-04-21T17:19:46.164Z,47.15
2023-04-21T17:22:17.454Z,46.59
2023-04-21T17:24:53.712Z,46.81
2023-04-21T17:27:25.499Z,47.09
2023-04-21T17:29:56.975Z,47.37
2023-04-21T17:32:29.557Z,47.79
2023-04-21T17:35:02.642Z,47.36
2023-04-21T17:37:34.368Z,47.34
2023-04-21T17:40:07.713Z,47.58
2023-04-21T17:42:40.236Z,48.10
2023-04-21T17:45:11.803Z,48.13
2023-04-21T17:47:43.313Z,48.15
2023-04-21T17:50:14.782Z,48.43
2023-04-21T17:52:46.084Z,48.27
2023-04-21T17:55:17.509Z,48.19
2023-04-21T17:57:49.072Z,48.46
2023-04-21T18:00:20.573Z,48.77
2023-04-21T18:02:51.963Z,49.02
2023-04-21T18:05:23.383Z,48.75
2023-04-21T18:07:54.901Z,49.05
2023-04-21T18:10:28.975Z,49.42
2023-04-21T18:13:01.173Z,49.37
2023-04-21T18:15:32.904Z,49.63
2023-04-21T18:18:04.370Z,49.53
2023-04-21T18:20:36.472Z,49.50
2023-04-21T18:23:08.591Z,49.64
2023-04-21T18:25:43.026Z,50.00
2023-04-21T18:28:14.609Z,50.14
2023-04-21T18:30:46.564Z,50.23
2023-04-21T18:33:18.595Z,50.58
2023-04-21T18:35:50.261Z,50.68
2023-04-21T18:38:21.811Z,50.89
2023-04-21T18:40:53.146Z,50.86
2023-04-21T18:43:24.555Z,51.16
2023-04-21T18:45:55.984Z,51.25
2023-04-21T18:48:27.286Z,51.29
2023-04-21T18:50:59.056Z,51.40
2023-04-21T18:53:30.448Z,51.61
2023-04-21T18:56:01.781Z,51.69
2023-04-21T18:58:33.037Z,51.71
2023-04-21T19:01:04.546Z,51.92
2023-04-21T19:03:36.003Z,52.43
2023-04-21T19:06:07.423Z,52.21
2023-04-21T19:08:42.494Z,52.75
2023-04-21T19:11:15.796Z,53.09
2023-04-21T19:13:48.089Z,53.52
2023-04-21T19:16:20.022Z,53.96
2023-04-21T19:18:52.180Z,53.96
2023-04-21T19:21:23.576Z,54.25
2023-04-21T19:23:55.227Z,54.35
2023-04-21T19:26:27.314Z,54.54
2023-04-21T19:28:58.728Z,55.13
2023-04-21T19:31:30.374Z,55.35
2023-04-21T19:34:01.636Z,55.48
2023-04-21T19:36:33.746Z,55.59
2023-04-21T19:39:06.774Z,56.16
2023-04-21T19:41:38.147Z,56.35
2023-04-21T19:44:09.491Z,56.55
2023-04-21T19:46:42.666Z,56.66
2023-04-21T19:49:14.691Z,56.94
2023-04-21T19:51:46.048Z,57.30
2023-04-21T19:54:17.471Z,57.48
2023-04-21T19:56:48.744Z,57.63
2023-04-21T19:59:20.059Z,58.18
2023-04-21T20:01:51.480Z,58.00
2023-04-21T20:04:22.872Z,58.40
2023-04-21T20:06:54.472Z,58.91
2023-04-21T20:09:25.751Z,58.79
2023-04-21T20:11:57.792Z,59.38
2023-04-21T20:14:29.054Z,59.16
2023-04-21T20:17:00.696Z,58.90
2023-04-21T20:19:32.082Z,59.20
2023-04-21T20:22:03.496Z,59.68
2023-04-21T20:24:34.789Z,59.77
2023-04-21T20:27:08.652Z,59.83
2023-04-21T20:29:41.014Z,60.11
2023-04-21T20:32:12.420Z,59.72
2023-04-21T20:34:43.973Z,59.97
2023-04-21T20:37:16.022Z,60.17
2023-04-21T20:39:47.372Z,60.38
2023-04-21T20:42:19.232Z,60.09
2023-04-21T20:44:51.065Z,60.29
2023-04-21T20:47:22.552Z,60.08
2023-04-21T20:49:54.732Z,60.19
2023-04-21T20:52:26.252Z,60.22
2023-04-21T20:54:57.552Z,60.00
2023-04-21T20:57:28.904Z,60.20
2023-04-21T21:00:00.350Z,60.13
2023-04-21T21:02:31.809Z,60.36
2023-04-21T21:05:04.205Z,60.51
2023-04-21T21:07:35.691Z,60.33
2023-04-21T21:10:08.093Z,60.50
2023-04-21T21:12:39.491Z,60.93
2023-04-21T21:15:11.655Z,60.94
2023-04-21T21:17:43.118Z,60.73
2023-04-21T21:20:14.586Z,61.27
2023-04-21T21:22:45.896Z,61.13
2023-04-21T21:25:17.332Z,60.97
2023-04-21T21:27:48.682Z,61.08
2023-04-21T21:30:20.159Z,60.92
2023-04-21T21:32:53.663Z,61.16
2023-04-21T21:35:25.045Z,61.27
2023-04-21T21:37:56.408Z,61.08
2023-04-21T21:40:28.093Z,61.35
2023-04-21T21:42:59.405Z,61.15
2023-04-21T21:45:30.785Z,60.98
2023-04-21T21:48:02.251Z,61.17
2023-04-21T21:50:33.743Z,61.07
2023-04-21T21:53:05.038Z,61.24
2023-04-21T21:55:36.494Z,61.40
2023-04-21T21:58:07.917Z,61.31
2023-04-21T22:00:39.974Z,61.23
2023-04-21T22:03:11.419Z,61.49
2023-04-21T22:05:42.952Z,61.34
2023-04-21T22:08:15.496Z,61.32
2023-04-21T22:10:46.848Z,61.51
2023-04-21T22:13:18.130Z,61.62
2023-04-21T22:15:49.529Z,61.45
2023-04-21T22:18:20.922Z,61.64
2023-04-21T22:20:52.258Z,61.53
2023-04-21T22:23:23.602Z,62.04
2023-04-21T22:25:54.951Z,61.73
2023-04-21T22:28:26.276Z,61.92
2023-04-21T22:30:57.657Z,61.75
2023-04-21T22:33:29.000Z,61.97
2023-04-21T22:36:00.289Z,61.79
2023-04-21T22:38:31.544Z,61.95
2023-04-21T22:41:02.878Z,62.07
2023-04-21T22:43:34.243Z,62.23
2023-04-21T22:46:06.772Z,62.08
2023-04-21T22:48:38.231Z,62.17
2023-04-21T22:51:10.213Z,62.44
2023-04-21T22:53:41.480Z,62.21
2023-04-21T22:56:12.852Z,62.50
2023-04-21T22:58:44.129Z,62.54
2023-04-21T23:01:15.964Z,62.71
2023-04-21T23:03:47.588Z,62.68
2023-04-21T23:06:19.168Z,62.79
2023-04-21T23:08:50.544Z,62.71
2023-04-21T23:11:21.882Z,62.75
2023-04-21T23:13:53.812Z,62.82
2023-04-21T23:16:25.157Z,62.89
2023-04-21T23:18:56.497Z,63.02
2023-04-21T23:21:28.137Z,62.88
2023-04-21T23:23:59.484Z,63.22
2023-04-21T23:26:30.843Z,63.43
2023-04-21T23:29:02.134Z,63.35
2023-04-21T23:31:33.524Z,63.24
2023-04-21T23:34:04.896Z,63.11
2023-04-21T23:36:36.228Z,63.49
2023-04-21T23:39:07.500Z,63.26
2023-04-21T23:41:38.969Z,63.58
2023-04-21T23:44:10.736Z,63.61
2023-04-21T23:46:42.091Z,63.60
2023-04-21T23:49:13.411Z,63.38
2023-04-21T23:51:44.767Z,63.56
2023-04-21T23:54:16.161Z,63.65
2023-04-21T23:56:47.476Z,63.77
2023-04-21T23:59:19.225Z,63.47
